createdAt,value
2017-12-15T00:00:58.176Z,3.20
2017-12-15T00:01:58.136Z,6.60
2017-12-15T00:02:58.090Z,5.00
2017-12-15T00:03:58.071Z,4.00
2017-12-15T00:04:58.008Z,3.90
2017-12-15T00:05:57.970Z,3.90
2017-12-15T00:06:57.926Z,5.90
2017-12-15T00:07:57.885Z,3.70
2017-12-15T00:08:57.867Z,3.50
2017-12-15T00:09:57.882Z,2.70
2017-12-15T00:10:57.760Z,4.10
2017-12-15T00:11:57.720Z,5.70
2017-12-15T00:12:57.680Z,3.10
2017-12-15T00:13:57.637Z,4.70
2017-12-15T00:14:57.605Z,3.00
2017-12-15T00:15:57.564Z,3.30
2017-12-15T00:16:57.513Z,3.60
2017-12-15T00:17:57.474Z,4.70
2017-12-15T00:18:57.429Z,3.60
2017-12-15T00:19:57.391Z,3.70
2017-12-15T00:20:57.349Z,3.30
2017-12-15T00:21:57.307Z,3.10
2017-12-15T00:22:57.265Z,3.60
2017-12-15T00:23:57.234Z,4.20
2017-12-15T00:24:57.182Z,5.00
2017-12-15T00:25:57.140Z,2.90
2017-12-15T00:26:57.100Z,4.40
2017-12-15T00:27:57.057Z,4.30
2017-12-15T00:28:57.015Z,5.20
2017-12-15T00:29:56.978Z,3.00
2017-12-15T00:30:56.933Z,3.80
2017-12-15T00:31:56.894Z,4.30
2017-12-15T00:32:56.851Z,3.90
2017-12-15T00:33:56.811Z,4.80
2017-12-15T00:34:56.768Z,4.20
2017-12-15T00:35:56.744Z,4.10
2017-12-15T00:36:56.689Z,3.70
2017-12-15T00:37:56.647Z,3.90
2017-12-15T00:38:56.609Z,6.70
2017-12-15T00:39:56.567Z,4.50
2017-12-15T00:40:56.522Z,4.40
2017-12-15T00:41:56.493Z,4.70
2017-12-15T00:42:56.438Z,3.70
2017-12-15T00:43:56.404Z,3.90
2017-12-15T00:44:56.358Z,3.50
2017-12-15T00:45:56.315Z,3.80
2017-12-15T00:46:56.276Z,3.90
2017-12-15T00:47:56.234Z,2.90
2017-12-15T00:48:56.194Z,3.70
2017-12-15T00:49:56.153Z,3.10
2017-12-15T00:50:56.114Z,3.80
2017-12-15T00:51:56.074Z,2.90
2017-12-15T00:52:56.044Z,2.90
2017-12-15T00:53:55.985Z,4.00
2017-12-15T00:54:55.949Z,3.80
2017-12-15T00:55:55.910Z,3.10
2017-12-15T00:56:55.868Z,4.40
2017-12-15T00:57:55.820Z,3.70
2017-12-15T00:58:55.780Z,4.40
2017-12-15T00:59:55.746Z,3.90
2017-12-15T01:00:55.697Z,3.50
2017-12-15T01:01:55.658Z,3.20
2017-12-15T01:02:55.614Z,3.00
2017-12-15T01:03:55.574Z,3.60
2017-12-15T01:04:55.530Z,4.00
2017-12-15T01:05:55.493Z,2.70
2017-12-15T01:06:55.450Z,3.40
2017-12-15T01:07:55.413Z,3.20
2017-12-15T01:08:55.366Z,3.00
2017-12-15T01:09:55.342Z,5.80
2017-12-15T01:10:55.285Z,3.50
2017-12-15T01:11:55.326Z,4.10
2017-12-15T01:12:55.208Z,3.90
2017-12-15T01:13:55.162Z,4.50
2017-12-15T01:14:55.117Z,3.40
2017-12-15T01:15:55.077Z,4.80
2017-12-15T01:16:55.041Z,4.10
2017-12-15T01:17:54.995Z,4.10
2017-12-15T01:18:54.955Z,6.40
2017-12-15T01:19:54.912Z,7.30
2017-12-15T01:20:54.870Z,4.80
2017-12-15T01:21:54.830Z,4.50
2017-12-15T01:22:54.790Z,3.40
2017-12-15T01:23:54.748Z,5.40
2017-12-15T01:24:54.722Z,5.00
2017-12-15T01:25:54.668Z,6.10
2017-12-15T01:26:54.629Z,5.10
2017-12-15T01:27:54.582Z,6.80
2017-12-15T01:28:54.551Z,4.60
2017-12-15T01:29:54.497Z,6.30
2017-12-15T01:30:54.466Z,4.70
2017-12-15T01:31:54.486Z,6.60
2017-12-15T01:32:54.372Z,4.50
2017-12-15T01:33:54.333Z,4.90
2017-12-15T01:34:54.290Z,4.80
2017-12-15T01:35:54.248Z,4.70
2017-12-15T01:36:54.215Z,9.20
2017-12-15T01:37:54.172Z,5.30
2017-12-15T01:38:54.126Z,5.90
2017-12-15T01:39:54.090Z,7.50
2017-12-15T01:40:54.040Z,6.80
2017-12-15T01:41:54.001Z,6.90
2017-12-15T01:42:53.961Z,9.40
2017-12-15T01:43:53.921Z,7.80
2017-12-15T01:44:53.906Z,6.30
2017-12-15T01:45:53.851Z,6.00
2017-12-15T01:46:53.807Z,6.70
2017-12-15T01:47:53.748Z,7.70
2017-12-15T01:48:53.719Z,8.80
2017-12-15T01:49:53.674Z,8.60
2017-12-15T01:50:53.625Z,8.10
2017-12-15T01:51:53.592Z,8.50
2017-12-15T01:52:53.569Z,7.10
2017-12-15T01:53:53.498Z,9.00
2017-12-15T01:54:53.457Z,8.60
2017-12-15T01:55:53.443Z,9.10
2017-12-15T01:56:53.392Z,6.90
2017-12-15T01:57:53.345Z,8.20
2017-12-15T01:58:53.291Z,9.10
2017-12-15T01:59:53.253Z,7.90
2017-12-15T02:00:53.211Z,10.40
2017-12-15T02:01:53.163Z,8.80
2017-12-15T02:02:53.163Z,8.40
2017-12-15T02:03:53.079Z,9.00
2017-12-15T02:04:53.052Z,9.50
2017-12-15T02:05:52.996Z,11.60
2017-12-15T02:06:52.953Z,9.90
2017-12-15T02:07:52.917Z,10.30
2017-12-15T02:08:52.877Z,9.20
2017-12-15T02:09:52.868Z,9.90
2017-12-15T02:10:52.835Z,8.90
2017-12-15T02:11:52.760Z,8.30
2017-12-15T02:12:52.700Z,11.50
2017-12-15T02:13:52.667Z,8.70
2017-12-15T02:14:52.620Z,8.40
2017-12-15T02:15:52.581Z,10.60
2017-12-15T02:16:52.534Z,10.80
2017-12-15T02:17:52.497Z,10.80
2017-12-15T02:18:52.458Z,8.00
2017-12-15T02:19:52.405Z,9.20
2017-12-15T02:20:52.376Z,9.60
2017-12-15T02:21:52.342Z,11.10
2017-12-15T02:22:52.279Z,10.00
2017-12-15T02:23:52.250Z,11.00
2017-12-15T02:24:52.195Z,11.00
2017-12-15T02:25:52.164Z,9.80
2017-12-15T02:26:52.112Z,11.00
2017-12-15T02:27:52.074Z,9.30
2017-12-15T02:28:52.028Z,9.30
2017-12-15T02:29:51.985Z,10.00
2017-12-15T02:30:51.944Z,10.00
2017-12-15T02:31:51.915Z,9.00
2017-12-15T02:32:51.860Z,9.00
2017-12-15T02:33:51.818Z,10.00
2017-12-15T02:34:51.774Z,9.80
2017-12-15T02:35:51.730Z,9.30
2017-12-15T02:36:51.692Z,10.70
2017-12-15T02:37:51.647Z,11.50
2017-12-15T02:38:51.603Z,11.20
2017-12-15T02:39:51.561Z,9.80
2017-12-15T02:40:51.532Z,9.90
2017-12-15T02:41:51.483Z,10.50
2017-12-15T02:42:51.438Z,13.30
2017-12-15T02:43:51.393Z,10.70
2017-12-15T02:44:51.350Z,10.20
2017-12-15T02:45:51.307Z,8.20
2017-12-15T02:46:51.266Z,11.80
2017-12-15T02:47:51.224Z,11.20
2017-12-15T02:48:51.184Z,12.10
2017-12-15T02:49:51.142Z,10.30
2017-12-15T02:50:51.096Z,11.70
2017-12-15T02:51:51.056Z,9.40
2017-12-15T02:52:51.021Z,11.20
2017-12-15T02:53:50.972Z,11.00
2017-12-15T02:54:50.928Z,9.50
2017-12-15T02:55:50.889Z,10.20
2017-12-15T02:56:50.842Z,12.20
2017-12-15T02:57:50.801Z,11.50
2017-12-15T02:58:50.755Z,11.40
2017-12-15T02:59:50.716Z,12.20
2017-12-15T03:00:50.673Z,8.60
2017-12-15T03:01:50.649Z,9.80
2017-12-15T03:02:50.590Z,10.70
2017-12-15T03:03:50.546Z,11.50
2017-12-15T03:04:50.513Z,13.30
2017-12-15T03:05:50.470Z,11.80
2017-12-15T03:06:50.417Z,11.90
2017-12-15T03:07:50.376Z,10.90
2017-12-15T03:08:50.333Z,10.50
2017-12-15T03:09:50.293Z,10.40
2017-12-15T03:10:50.260Z,9.80
2017-12-15T03:11:50.208Z,11.30
2017-12-15T03:12:50.185Z,10.10
2017-12-15T03:13:50.123Z,10.50
2017-12-15T03:14:50.080Z,9.10
2017-12-15T03:15:50.039Z,12.20
2017-12-15T03:16:49.996Z,12.80
2017-12-15T03:17:49.955Z,10.20
2017-12-15T03:18:49.908Z,8.80
2017-12-15T03:19:49.876Z,9.40
2017-12-15T03:20:49.826Z,9.80
2017-12-15T03:21:49.782Z,10.60
2017-12-15T03:22:49.741Z,11.00
2017-12-15T03:23:49.710Z,8.70
2017-12-15T03:24:49.658Z,11.10
2017-12-15T03:25:49.623Z,8.10
2017-12-15T03:26:49.569Z,9.20
2017-12-15T03:27:49.533Z,10.80
2017-12-15T03:28:49.503Z,8.30
2017-12-15T03:29:49.445Z,9.00
2017-12-15T03:30:49.403Z,9.80
2017-12-15T03:31:49.357Z,9.60
2017-12-15T03:32:49.317Z,8.80
2017-12-15T03:33:49.276Z,8.50
2017-12-15T03:34:49.231Z,8.70
2017-12-15T03:35:49.187Z,7.80
2017-12-15T03:36:49.145Z,9.80
2017-12-15T03:37:49.106Z,9.30
2017-12-15T03:38:49.063Z,7.30
2017-12-15T03:39:49.018Z,6.80
2017-12-15T03:40:48.978Z,8.10
2017-12-15T03:41:48.941Z,6.00
2017-12-15T03:42:48.892Z,8.80
2017-12-15T03:43:48.847Z,7.60
2017-12-15T03:44:48.806Z,7.10
2017-12-15T03:45:48.771Z,9.10
2017-12-15T03:46:48.720Z,7.70
2017-12-15T03:47:48.678Z,8.70
2017-12-15T03:48:48.637Z,7.90
2017-12-15T03:49:48.595Z,8.90
2017-12-15T03:50:48.557Z,8.50
2017-12-15T03:51:48.523Z,8.80
2017-12-15T03:52:48.470Z,7.60
2017-12-15T03:53:48.426Z,9.10
2017-12-15T03:54:48.393Z,7.10
2017-12-15T03:55:48.341Z,8.00
2017-12-15T03:56:48.295Z,8.60
2017-12-15T03:57:48.254Z,7.60
2017-12-15T03:58:48.214Z,7.90
2017-12-15T03:59:48.171Z,7.10
2017-12-15T04:00:48.133Z,7.10
2017-12-15T04:01:49.077Z,8.80
2017-12-15T04:02:48.045Z,7.70
2017-12-15T04:03:48.000Z,7.60
2017-12-15T04:04:47.958Z,6.10
2017-12-15T04:05:47.917Z,7.30
2017-12-15T04:06:47.872Z,8.00
2017-12-15T04:07:47.830Z,7.00
2017-12-15T04:08:47.791Z,6.50
2017-12-15T04:09:47.749Z,6.30
2017-12-15T04:10:47.702Z,7.10
2017-12-15T04:11:47.661Z,6.30
2017-12-15T04:12:47.618Z,6.00
2017-12-15T04:13:47.584Z,6.70
2017-12-15T04:14:47.535Z,7.00
2017-12-15T04:15:47.492Z,7.50
2017-12-15T04:16:47.448Z,6.90
2017-12-15T04:17:47.419Z,6.50
2017-12-15T04:18:47.364Z,8.00
2017-12-15T04:19:47.324Z,6.80
2017-12-15T04:20:47.285Z,6.30
2017-12-15T04:21:47.247Z,7.80
2017-12-15T04:22:47.196Z,8.00
2017-12-15T04:23:47.150Z,6.60
2017-12-15T04:24:47.112Z,7.40
2017-12-15T04:25:47.071Z,6.20
2017-12-15T04:26:47.026Z,10.70
2017-12-15T04:27:46.982Z,7.60
2017-12-15T04:28:46.941Z,8.00
2017-12-15T04:29:46.897Z,5.40
2017-12-15T04:30:46.855Z,6.60
2017-12-15T04:31:46.815Z,7.30
2017-12-15T04:32:46.776Z,6.30
2017-12-15T04:33:46.729Z,8.30
2017-12-15T04:34:46.682Z,11.70
2017-12-15T04:35:46.643Z,7.10
2017-12-15T04:36:46.608Z,7.40
2017-12-15T04:37:46.558Z,6.30
2017-12-15T04:38:46.519Z,9.30
2017-12-15T04:39:46.472Z,8.80
2017-12-15T04:40:46.951Z,7.40
2017-12-15T04:41:46.389Z,7.00
2017-12-15T04:42:46.345Z,7.00
2017-12-15T04:43:46.304Z,7.50
2017-12-15T04:44:46.261Z,8.50
2017-12-15T04:45:46.219Z,7.50
2017-12-15T04:46:46.185Z,7.30
2017-12-15T04:47:46.134Z,5.70
2017-12-15T04:48:46.092Z,9.20
2017-12-15T04:49:46.065Z,7.00
2017-12-15T04:50:46.006Z,12.10
2017-12-15T04:51:45.965Z,9.90
2017-12-15T04:52:45.919Z,8.20
2017-12-15T04:53:45.881Z,7.50
2017-12-15T04:54:45.836Z,9.10
2017-12-15T04:55:45.792Z,9.50
2017-12-15T04:56:45.752Z,13.00
2017-12-15T04:57:45.710Z,9.40
2017-12-15T04:58:45.665Z,9.80
2017-12-15T04:59:45.633Z,12.70
2017-12-15T05:00:45.585Z,8.90
2017-12-15T05:01:45.545Z,9.20
2017-12-15T05:02:45.497Z,8.70
2017-12-15T05:03:45.454Z,10.50
2017-12-15T05:04:45.438Z,9.30
2017-12-15T05:05:45.514Z,10.70
2017-12-15T05:06:45.386Z,11.20
2017-12-15T05:07:45.286Z,9.90
2017-12-15T05:08:45.243Z,9.40
2017-12-15T05:09:45.204Z,11.10
2017-12-15T05:10:45.159Z,7.90
2017-12-15T05:11:45.132Z,10.50
2017-12-15T05:12:45.073Z,8.70
2017-12-15T05:13:45.031Z,6.20
2017-12-15T05:14:44.988Z,10.20
2017-12-15T05:15:44.955Z,9.40
2017-12-15T05:16:44.915Z,6.90
2017-12-15T05:17:44.867Z,9.30
2017-12-15T05:18:44.841Z,9.20
2017-12-15T05:19:44.778Z,8.90
2017-12-15T05:20:44.843Z,8.60
2017-12-15T05:21:44.694Z,8.30
2017-12-15T05:22:44.649Z,8.30
2017-12-15T05:23:44.615Z,8.00
2017-12-15T05:24:44.569Z,8.60
2017-12-15T05:25:44.531Z,8.00
2017-12-15T05:26:44.489Z,8.40
2017-12-15T05:27:44.438Z,6.50
2017-12-15T05:28:44.400Z,8.30
2017-12-15T05:29:44.353Z,7.70
2017-12-15T05:30:44.313Z,9.60
2017-12-15T05:31:44.272Z,10.60
2017-12-15T05:32:44.240Z,8.40
2017-12-15T05:33:44.187Z,9.50
2017-12-15T05:34:44.148Z,8.70
2017-12-15T05:35:44.102Z,8.20
2017-12-15T05:36:44.060Z,9.10
2017-12-15T05:37:44.019Z,8.00
2017-12-15T05:38:43.983Z,6.10
2017-12-15T05:39:43.941Z,9.20
2017-12-15T05:40:43.895Z,7.40
2017-12-15T05:41:43.853Z,6.50
2017-12-15T05:42:43.817Z,7.40
2017-12-15T05:43:43.774Z,6.50
2017-12-15T05:44:43.726Z,5.50
2017-12-15T05:45:43.685Z,7.40
2017-12-15T05:46:43.641Z,6.00
2017-12-15T05:47:43.603Z,9.30
2017-12-15T05:48:43.561Z,7.50
2017-12-15T05:49:43.516Z,7.70
2017-12-15T05:50:43.473Z,8.10
2017-12-15T05:51:43.449Z,6.50
2017-12-15T05:52:43.392Z,7.30
2017-12-15T05:53:43.349Z,6.30
2017-12-15T05:54:43.305Z,5.70
2017-12-15T05:55:43.270Z,7.70
2017-12-15T05:56:43.232Z,7.10
2017-12-15T05:57:43.180Z,6.90
2017-12-15T05:58:43.144Z,10.00
2017-12-15T05:59:43.102Z,9.90
2017-12-15T06:00:43.054Z,8.80
2017-12-15T06:01:43.016Z,10.40
2017-12-15T06:02:42.976Z,7.60
2017-12-15T06:03:42.938Z,11.20
2017-12-15T06:04:42.946Z,14.80
2017-12-15T06:05:42.849Z,8.90
2017-12-15T06:06:42.802Z,8.70
2017-12-15T06:07:42.761Z,6.70
2017-12-15T06:08:42.718Z,10.70
2017-12-15T06:09:42.688Z,9.30
2017-12-15T06:10:42.635Z,8.10
2017-12-15T06:11:42.592Z,7.10
2017-12-15T06:12:42.557Z,8.80
2017-12-15T06:13:42.516Z,7.40
2017-12-15T06:14:42.469Z,10.50
2017-12-15T06:15:42.426Z,7.90
2017-12-15T06:16:42.382Z,10.60
2017-12-15T06:17:42.368Z,7.10
2017-12-15T06:18:42.307Z,8.70
2017-12-15T06:19:42.260Z,9.30
2017-12-15T06:20:42.261Z,10.30
2017-12-15T06:21:42.195Z,8.00
2017-12-15T06:22:42.147Z,8.20
2017-12-15T06:23:42.090Z,9.70
2017-12-15T06:24:42.055Z,8.70
2017-12-15T06:25:42.006Z,10.30
2017-12-15T06:26:41.970Z,10.50
2017-12-15T06:27:41.925Z,10.50
2017-12-15T06:28:41.879Z,8.40
2017-12-15T06:29:41.852Z,10.10
2017-12-15T06:30:41.795Z,10.40
2017-12-15T06:31:41.756Z,10.20
2017-12-15T06:32:41.712Z,9.00
2017-12-15T06:33:41.689Z,8.60
2017-12-15T06:34:41.632Z,10.30
2017-12-15T06:35:41.593Z,8.40
2017-12-15T06:36:41.546Z,9.60
2017-12-15T06:37:41.509Z,8.80
2017-12-15T06:38:41.474Z,11.50
2017-12-15T06:39:41.421Z,8.70
2017-12-15T06:40:41.441Z,8.20
2017-12-15T06:41:41.374Z,10.40
2017-12-15T06:42:41.296Z,9.80
2017-12-15T06:43:41.264Z,8.30
2017-12-15T06:44:41.230Z,8.10
2017-12-15T06:45:41.170Z,9.00
2017-12-15T06:46:41.138Z,9.00
2017-12-15T06:47:41.088Z,8.70
2017-12-15T06:48:41.050Z,11.50
2017-12-15T06:49:41.019Z,12.00
2017-12-15T06:50:40.967Z,10.60
2017-12-15T06:51:40.922Z,8.90
2017-12-15T06:52:40.877Z,7.00
2017-12-15T06:53:40.837Z,8.60
2017-12-15T06:54:40.794Z,9.00
2017-12-15T06:55:40.752Z,7.20
2017-12-15T06:56:40.710Z,7.50
2017-12-15T06:57:40.671Z,13.20
2017-12-15T06:58:40.628Z,7.40
2017-12-15T06:59:40.589Z,7.60
2017-12-15T07:00:40.552Z,8.70
2017-12-15T07:01:40.531Z,12.80
2017-12-15T07:02:40.483Z,11.10
2017-12-15T07:03:40.418Z,9.90
2017-12-15T07:04:40.382Z,12.30
2017-12-15T07:05:40.354Z,13.10
2017-12-15T07:06:40.296Z,11.60
2017-12-15T07:07:40.265Z,9.50
2017-12-15T07:08:40.209Z,9.30
2017-12-15T07:09:40.168Z,8.50
2017-12-15T07:10:40.130Z,11.80
2017-12-15T07:11:40.093Z,11.20
2017-12-15T07:12:40.048Z,11.30
2017-12-15T07:13:40.002Z,12.50
2017-12-15T07:14:39.958Z,9.90
2017-12-15T07:15:39.918Z,13.80
2017-12-15T07:16:39.880Z,14.60
2017-12-15T07:17:39.846Z,9.40
2017-12-15T07:18:39.790Z,11.80
2017-12-15T07:19:39.752Z,14.00
2017-12-15T07:20:39.708Z,9.70
2017-12-15T07:21:39.665Z,10.90
2017-12-15T07:22:39.641Z,9.90
2017-12-15T07:23:39.582Z,9.50
2017-12-15T07:24:39.553Z,10.40
2017-12-15T07:25:39.498Z,9.40
2017-12-15T07:26:39.461Z,8.20
2017-12-15T07:27:39.420Z,13.70
2017-12-15T07:28:39.380Z,10.40
2017-12-15T07:29:39.341Z,10.60
2017-12-15T07:30:39.287Z,11.60
2017-12-15T07:31:39.251Z,11.10
2017-12-15T07:32:39.200Z,8.40
2017-12-15T07:33:39.201Z,14.40
2017-12-15T07:34:39.127Z,8.80
2017-12-15T07:35:39.081Z,14.90
2017-12-15T07:36:39.047Z,12.70
2017-12-15T07:37:38.994Z,12.30
2017-12-15T07:38:38.957Z,12.90
2017-12-15T07:39:38.913Z,10.70
2017-12-15T07:40:38.871Z,10.60
2017-12-15T07:41:38.829Z,24.10
2017-12-15T07:42:38.795Z,13.60
2017-12-15T07:43:38.759Z,13.10
2017-12-15T07:44:38.702Z,12.60
2017-12-15T07:45:38.661Z,12.20
2017-12-15T07:46:38.628Z,11.80
2017-12-15T07:47:38.597Z,10.60
2017-12-15T07:48:38.559Z,11.90
2017-12-15T07:49:38.508Z,11.70
2017-12-15T07:50:38.452Z,11.30
2017-12-15T07:51:38.408Z,15.20
2017-12-15T07:52:38.367Z,12.50
2017-12-15T07:53:38.324Z,9.50
2017-12-15T07:54:38.283Z,10.70
2017-12-15T07:55:38.239Z,12.60
2017-12-15T07:56:38.199Z,17.00
2017-12-15T07:57:38.157Z,12.80
2017-12-15T07:58:38.116Z,12.00
2017-12-15T07:59:38.071Z,12.90
2017-12-15T08:00:38.031Z,18.00
2017-12-15T08:01:37.990Z,11.90
2017-12-15T08:02:37.949Z,13.10
2017-12-15T08:03:37.905Z,11.50
2017-12-15T08:04:37.872Z,14.00
2017-12-15T08:05:37.830Z,14.80
2017-12-15T08:06:37.782Z,15.80
2017-12-15T08:07:37.738Z,18.60
2017-12-15T08:08:37.726Z,15.40
2017-12-15T08:09:37.657Z,14.80
2017-12-15T08:10:37.613Z,15.70
2017-12-15T08:11:37.581Z,18.50
2017-12-15T08:12:37.537Z,13.80
2017-12-15T08:13:37.483Z,11.00
2017-12-15T08:14:37.448Z,11.40
2017-12-15T08:15:37.411Z,14.50
2017-12-15T08:16:37.362Z,10.40
2017-12-15T08:17:37.319Z,13.50
2017-12-15T08:18:37.276Z,16.80
2017-12-15T08:19:37.241Z,11.50
2017-12-15T08:20:37.192Z,13.60
2017-12-15T08:21:37.155Z,13.40
2017-12-15T08:22:37.115Z,12.60
2017-12-15T08:23:37.068Z,19.00
2017-12-15T08:24:37.025Z,22.10
2017-12-15T08:25:37.011Z,20.10
2017-12-15T08:26:36.943Z,29.30
2017-12-15T08:27:36.900Z,30.20
2017-12-15T08:28:36.859Z,30.00
2017-12-15T08:29:36.817Z,29.50
2017-12-15T08:30:36.786Z,29.40
2017-12-15T08:31:36.745Z,35.40
2017-12-15T08:32:36.699Z,36.00
2017-12-15T08:33:36.650Z,34.50
2017-12-15T08:34:36.607Z,31.50
2017-12-15T08:35:36.569Z,24.90
2017-12-15T08:36:36.528Z,19.00
2017-12-15T08:37:36.484Z,17.50
2017-12-15T08:38:36.445Z,16.10
2017-12-15T08:39:36.412Z,20.10
2017-12-15T08:40:36.367Z,15.70
2017-12-15T08:41:36.318Z,12.80
2017-12-15T08:42:36.277Z,16.50
2017-12-15T08:43:36.234Z,15.70
2017-12-15T08:44:36.190Z,13.70
2017-12-15T08:45:36.163Z,15.80
2017-12-15T08:46:36.111Z,14.50
2017-12-15T08:47:36.083Z,11.80
2017-12-15T08:48:36.025Z,11.50
2017-12-15T08:49:35.986Z,13.90
2017-12-15T08:50:35.952Z,10.20
2017-12-15T08:51:35.901Z,10.50
2017-12-15T08:52:35.860Z,14.00
2017-12-15T08:53:35.819Z,19.00
2017-12-15T08:54:35.785Z,14.60
2017-12-15T08:55:35.750Z,16.40
2017-12-15T08:56:35.776Z,13.40
2017-12-15T08:57:35.659Z,15.20
2017-12-15T08:58:35.613Z,11.20
2017-12-15T08:59:35.572Z,14.70
2017-12-15T09:00:35.529Z,15.40
2017-12-15T09:01:35.516Z,20.70
2017-12-15T09:02:35.455Z,19.30
2017-12-15T09:03:35.408Z,12.70
2017-12-15T09:04:35.371Z,13.30
2017-12-15T09:05:35.332Z,14.00
2017-12-15T09:06:35.285Z,10.50
2017-12-15T09:07:35.243Z,11.30
2017-12-15T09:08:35.222Z,18.50
2017-12-15T09:09:35.160Z,16.20
2017-12-15T09:10:35.125Z,15.60
2017-12-15T09:11:35.080Z,12.50
2017-12-15T09:12:35.036Z,12.60
2017-12-15T09:13:34.998Z,12.00
2017-12-15T09:14:34.953Z,12.00
2017-12-15T09:15:34.915Z,12.10
2017-12-15T09:16:34.872Z,11.30
2017-12-15T09:17:34.872Z,13.10
2017-12-15T09:18:34.799Z,13.70
2017-12-15T09:19:34.754Z,14.00
2017-12-15T09:20:34.724Z,13.60
2017-12-15T09:21:34.721Z,14.90
2017-12-15T09:22:34.633Z,10.70
2017-12-15T09:23:34.598Z,13.30
2017-12-15T09:24:34.545Z,12.80
2017-12-15T09:25:34.511Z,12.60
2017-12-15T09:26:34.458Z,12.00
2017-12-15T09:27:34.426Z,14.50
2017-12-15T09:28:34.410Z,15.40
2017-12-15T09:29:34.340Z,13.20
2017-12-15T09:30:34.298Z,14.80
2017-12-15T09:31:34.279Z,12.80
2017-12-15T09:32:34.228Z,10.70
2017-12-15T09:33:34.201Z,8.80
2017-12-15T09:34:34.140Z,9.00
2017-12-15T09:35:34.137Z,8.30
2017-12-15T09:36:34.054Z,9.60
2017-12-15T09:37:34.012Z,11.10
2017-12-15T09:38:33.984Z,9.50
2017-12-15T09:39:33.963Z,10.60
2017-12-15T09:40:33.893Z,11.00
2017-12-15T09:41:33.850Z,11.80
2017-12-15T09:42:33.806Z,12.30
2017-12-15T09:43:33.779Z,10.50
2017-12-15T09:44:33.728Z,10.60
2017-12-15T09:45:33.686Z,10.40
2017-12-15T09:46:33.654Z,10.60
2017-12-15T09:47:33.605Z,10.70
2017-12-15T09:48:33.569Z,11.20
2017-12-15T09:49:33.539Z,12.80
2017-12-15T09:50:33.481Z,10.20
2017-12-15T09:51:33.444Z,9.50
2017-12-15T09:52:33.401Z,10.40
2017-12-15T09:53:33.360Z,11.50
2017-12-15T09:54:33.317Z,10.90
2017-12-15T09:55:33.281Z,9.50
2017-12-15T09:56:33.239Z,12.90
2017-12-15T09:57:33.224Z,12.20
2017-12-15T09:58:33.169Z,12.20
2017-12-15T09:59:33.113Z,11.90
2017-12-15T10:00:33.071Z,10.80
2017-12-15T10:01:33.032Z,12.00
2017-12-15T10:02:32.991Z,9.60
2017-12-15T10:03:32.950Z,14.60
2017-12-15T10:04:32.908Z,12.70
2017-12-15T10:05:32.899Z,14.30
2017-12-15T10:06:32.833Z,14.50
2017-12-15T10:07:32.789Z,12.90
2017-12-15T10:08:32.746Z,12.90
2017-12-15T10:09:32.718Z,11.30
2017-12-15T10:10:32.663Z,16.40
2017-12-15T10:11:32.621Z,12.50
2017-12-15T10:12:32.579Z,12.50
2017-12-15T10:13:32.554Z,12.80
2017-12-15T10:14:32.503Z,11.50
2017-12-15T10:15:32.457Z,13.30
2017-12-15T10:16:32.467Z,13.40
2017-12-15T10:17:32.377Z,10.30
2017-12-15T10:18:32.333Z,11.40
2017-12-15T10:19:32.297Z,12.20
2017-12-15T10:20:32.252Z,15.30
2017-12-15T10:21:32.211Z,13.40
2017-12-15T10:22:32.169Z,10.10
2017-12-15T10:23:32.135Z,11.10
2017-12-15T10:24:32.098Z,10.40
2017-12-15T10:25:32.048Z,11.00
2017-12-15T10:26:32.015Z,13.60
2017-12-15T10:27:31.968Z,10.40
2017-12-15T10:28:31.928Z,14.20
2017-12-15T10:29:31.887Z,12.10
2017-12-15T10:30:31.840Z,13.20
2017-12-15T10:31:31.800Z,10.50
2017-12-15T10:32:31.760Z,11.40
2017-12-15T10:33:31.720Z,13.00
2017-12-15T10:34:31.685Z,15.30
2017-12-15T10:35:31.641Z,14.20
2017-12-15T10:36:31.599Z,13.70
2017-12-15T10:37:31.570Z,14.70
2017-12-15T10:38:31.521Z,13.20
2017-12-15T10:39:31.477Z,10.60
2017-12-15T10:40:31.455Z,13.30
2017-12-15T10:41:31.402Z,15.90
2017-12-15T10:42:31.359Z,17.40
2017-12-15T10:43:31.318Z,13.60
2017-12-15T10:44:31.275Z,12.70
2017-12-15T10:45:31.230Z,17.20
2017-12-15T10:46:31.190Z,12.70
2017-12-15T10:47:31.158Z,12.70
2017-12-15T10:48:31.112Z,18.60
2017-12-15T10:49:31.066Z,13.60
2017-12-15T10:50:31.030Z,12.60
2017-12-15T10:51:30.988Z,12.30
2017-12-15T10:52:30.946Z,11.90
2017-12-15T10:53:30.904Z,11.70
2017-12-15T10:54:30.861Z,12.90
2017-12-15T10:55:30.821Z,13.90
2017-12-15T10:56:30.783Z,14.60
2017-12-15T10:57:30.742Z,15.70
2017-12-15T10:58:30.701Z,15.10
2017-12-15T10:59:30.655Z,12.60
2017-12-15T11:00:30.619Z,13.80
2017-12-15T11:01:30.588Z,15.10
2017-12-15T11:02:30.536Z,14.10
2017-12-15T11:03:30.494Z,13.80
2017-12-15T11:04:30.453Z,15.20
2017-12-15T11:05:30.414Z,12.40
2017-12-15T11:06:30.370Z,13.70
2017-12-15T11:07:30.331Z,13.80
2017-12-15T11:08:30.293Z,15.20
2017-12-15T11:09:30.252Z,13.70
2017-12-15T11:10:30.215Z,18.30
2017-12-15T11:11:30.163Z,16.40
2017-12-15T11:12:30.130Z,17.70
2017-12-15T11:13:30.081Z,13.30
2017-12-15T11:14:30.042Z,15.20
2017-12-15T11:15:29.999Z,16.90
2017-12-15T11:16:29.959Z,16.90
2017-12-15T11:17:29.921Z,13.60
2017-12-15T11:18:29.877Z,15.40
2017-12-15T11:19:29.845Z,13.20
2017-12-15T11:20:29.819Z,15.50
2017-12-15T11:21:29.762Z,16.20
2017-12-15T11:22:29.714Z,16.10
2017-12-15T11:23:29.675Z,17.30
2017-12-15T11:24:29.632Z,15.50
2017-12-15T11:25:29.596Z,15.40
2017-12-15T11:26:29.554Z,15.40
2017-12-15T11:27:29.509Z,16.50
2017-12-15T11:28:29.472Z,16.50
2017-12-15T11:29:29.426Z,16.70
2017-12-15T11:30:29.386Z,13.80
2017-12-15T11:31:29.351Z,14.50
2017-12-15T11:32:29.307Z,17.00
2017-12-15T11:33:29.263Z,15.10
2017-12-15T11:34:29.232Z,15.30
2017-12-15T11:35:29.199Z,14.50
2017-12-15T11:36:29.140Z,15.50
2017-12-15T11:37:29.103Z,16.80
2017-12-15T11:38:29.069Z,14.60
2017-12-15T11:39:29.017Z,15.90
2017-12-15T11:40:28.976Z,17.70
2017-12-15T11:41:28.954Z,15.70
2017-12-15T11:42:28.897Z,17.00
2017-12-15T11:43:28.854Z,16.40
2017-12-15T11:44:28.810Z,16.50
2017-12-15T11:45:28.772Z,15.40
2017-12-15T11:46:28.739Z,14.10
2017-12-15T11:47:28.695Z,15.50
2017-12-15T11:48:28.645Z,15.70
2017-12-15T11:49:28.613Z,16.60
2017-12-15T11:50:28.566Z,14.60
2017-12-15T11:51:28.524Z,17.10
2017-12-15T11:52:28.496Z,17.50
2017-12-15T11:53:28.443Z,16.20
2017-12-15T11:54:28.404Z,14.20
2017-12-15T11:55:28.365Z,15.10
2017-12-15T11:56:28.322Z,13.60
2017-12-15T11:57:28.284Z,12.60
2017-12-15T11:58:28.262Z,13.50
2017-12-15T11:59:28.218Z,15.50
2017-12-15T12:00:28.159Z,12.30
2017-12-15T12:01:28.111Z,13.00
2017-12-15T12:02:28.092Z,16.10
2017-12-15T12:03:28.031Z,15.90
2017-12-15T12:04:27.982Z,16.50
2017-12-15T12:05:27.954Z,15.00
2017-12-15T12:06:27.903Z,14.10
2017-12-15T12:07:27.862Z,12.20
2017-12-15T12:08:27.836Z,14.10
2017-12-15T12:09:27.784Z,15.60
2017-12-15T12:10:27.780Z,15.00
2017-12-15T12:11:27.693Z,13.50
2017-12-15T12:12:27.666Z,11.50
2017-12-15T12:13:27.612Z,15.20
2017-12-15T12:14:27.569Z,15.50
2017-12-15T12:15:27.538Z,12.20
2017-12-15T12:16:27.487Z,10.80
2017-12-15T12:17:27.466Z,13.80
2017-12-15T12:18:27.405Z,10.30
2017-12-15T12:19:27.365Z,10.70
2017-12-15T12:20:27.324Z,9.00
2017-12-15T12:21:27.278Z,10.60
2017-12-15T12:22:27.242Z,9.40
2017-12-15T12:23:27.192Z,13.10
2017-12-15T12:24:27.151Z,11.70
2017-12-15T12:25:27.111Z,10.90
2017-12-15T12:26:27.067Z,11.30
2017-12-15T12:27:27.031Z,9.20
2017-12-15T12:28:26.985Z,9.90
2017-12-15T12:29:26.945Z,10.10
2017-12-15T12:30:26.909Z,10.50
2017-12-15T12:31:26.863Z,13.30
2017-12-15T12:32:26.818Z,12.80
2017-12-15T12:33:26.872Z,10.40
2017-12-15T12:34:26.736Z,11.80
2017-12-15T12:35:26.695Z,9.70
2017-12-15T12:36:26.653Z,9.10
2017-12-15T12:37:26.611Z,9.00
2017-12-15T12:38:26.571Z,11.50
2017-12-15T12:39:26.529Z,8.80
2017-12-15T12:40:26.488Z,8.70
2017-12-15T12:41:26.452Z,8.70
2017-12-15T12:42:26.402Z,10.70
2017-12-15T12:43:26.363Z,8.60
2017-12-15T12:44:26.320Z,12.00
2017-12-15T12:45:26.280Z,8.70
2017-12-15T12:46:26.234Z,8.00
2017-12-15T12:47:26.242Z,10.00
2017-12-15T12:48:26.153Z,9.10
2017-12-15T12:49:26.111Z,7.60
2017-12-15T12:50:26.068Z,7.20
2017-12-15T12:51:26.036Z,8.00
2017-12-15T12:52:26.004Z,8.80
2017-12-15T12:53:25.945Z,8.20
2017-12-15T12:54:25.913Z,7.60
2017-12-15T12:55:25.887Z,8.20
2017-12-15T12:56:25.830Z,7.70
2017-12-15T12:57:25.785Z,6.80
2017-12-15T12:58:25.738Z,7.30
2017-12-15T12:59:25.697Z,8.30
2017-12-15T13:00:25.660Z,7.70
2017-12-15T13:01:25.623Z,6.80
2017-12-15T13:02:25.571Z,10.50
2017-12-15T13:03:25.542Z,30.50
2017-12-15T13:04:25.485Z,12.80
2017-12-15T13:05:25.447Z,7.30